BAW311 LFPG-EGLL
Flight info
| Callsign | BAW311 |
|---|---|
| Flight time | 0h 44m |
| Altitude | 24000 |
| Route | OPALE6B OPALE DCT KESAX DCT DIMAL DCT ALESO ALESO1H |
| Aircraft | A320/M-SDE3FGHIJ1RWXY/S |
Departure
| Time | 2026-05-05 17:35 |
|---|---|
| Airport | Charles de Gaulle International Airport (LFPG) |
Arrival
| Time | 2026-05-05 18:19 |
|---|---|
| Airport | London Heathrow Airport (EGLL) |
| Time | Latitude | Longitude | Altitude | Speed | Heading |
|---|---|---|---|---|---|
| 2026-05-05 16:58 | 49.00175 | 2.56204 | 355 ft | 0 kts | 352° |
| 2026-05-05 17:26 | 49.00158 | 2.56208 | 362 ft | 4 kts | 352° |
| 2026-05-05 17:27 | 49.00133 | 2.56213 | 363 ft | 2 kts | 352° |
| 2026-05-05 17:27 | 49.00110 | 2.56220 | 359 ft | 4 kts | 334° |
| 2026-05-05 17:27 | 49.00095 | 2.56243 | 361 ft | 3 kts | 266° |
| 2026-05-05 17:27 | 49.00096 | 2.56268 | 361 ft | 0 kts | 265° |
| 2026-05-05 17:30 | 49.00096 | 2.56267 | 361 ft | 0 kts | 265° |
| 2026-05-05 17:30 | 49.00093 | 2.56213 | 356 ft | 7 kts | 265° |
| 2026-05-05 17:30 | 49.00090 | 2.56157 | 357 ft | 9 kts | 265° |
| 2026-05-05 17:30 | 49.00085 | 2.56065 | 354 ft | 8 kts | 265° |
| 2026-05-05 17:31 | 49.00080 | 2.55971 | 354 ft | 9 kts | 266° |
| 2026-05-05 17:31 | 49.00075 | 2.55847 | 358 ft | 12 kts | 266° |
| 2026-05-05 17:31 | 49.00073 | 2.55722 | 354 ft | 12 kts | 271° |
| 2026-05-05 17:31 | 49.00019 | 2.55661 | 359 ft | 11 kts | 167° |
| 2026-05-05 17:32 | 48.99947 | 2.55698 | 360 ft | 11 kts | 147° |
| 2026-05-05 17:32 | 48.99911 | 2.55788 | 359 ft | 10 kts | 141° |
| 2026-05-05 17:32 | 48.99845 | 2.55799 | 359 ft | 10 kts | 178° |
| 2026-05-05 17:32 | 48.99772 | 2.55804 | 355 ft | 11 kts | 176° |
| 2026-05-05 17:33 | 48.99693 | 2.55815 | 357 ft | 11 kts | 175° |
| 2026-05-05 17:33 | 48.99618 | 2.55826 | 353 ft | 10 kts | 169° |
| 2026-05-05 17:33 | 48.99603 | 2.55891 | 353 ft | 0 kts | 84° |
| 2026-05-05 17:34 | 48.99610 | 2.56008 | 354 ft | 39 kts | 84° |
| 2026-05-05 17:34 | 48.99653 | 2.56757 | 355 ft | 100 kts | 86° |
| 2026-05-05 17:34 | 48.99719 | 2.58067 | 355 ft | 146 kts | 85° |
| 2026-05-05 17:35 | 48.99810 | 2.59790 | 528 ft | 170 kts | 84° |
| 2026-05-05 17:35 | 48.99906 | 2.61560 | 1212 ft | 166 kts | 82° |
| 2026-05-05 17:35 | 49.00013 | 2.63295 | 1939 ft | 164 kts | 81° |
| 2026-05-05 17:35 | 49.00139 | 2.65135 | 2355 ft | 184 kts | 82° |
| 2026-05-05 17:36 | 49.00271 | 2.67176 | 2786 ft | 204 kts | 82° |
| 2026-05-05 17:36 | 49.00403 | 2.69460 | 3232 ft | 229 kts | 84° |
| 2026-05-05 17:36 | 49.00522 | 2.72008 | 3807 ft | 251 kts | 85° |
| 2026-05-05 17:36 | 49.00642 | 2.74718 | 4680 ft | 260 kts | 85° |
| 2026-05-05 17:37 | 49.00768 | 2.77487 | 5680 ft | 264 kts | 85° |
| 2026-05-05 17:37 | 49.00901 | 2.80300 | 6654 ft | 270 kts | 85° |
| 2026-05-05 17:37 | 49.01055 | 2.83128 | 7561 ft | 273 kts | 81° |
| 2026-05-05 17:37 | 49.01760 | 2.85811 | 8384 ft | 277 kts | 53° |
| 2026-05-05 17:38 | 49.03215 | 2.87739 | 9176 ft | 282 kts | 28° |
| 2026-05-05 17:38 | 49.05114 | 2.88518 | 9932 ft | 289 kts | 2° |
| 2026-05-05 17:38 | 49.07091 | 2.87944 | 10620 ft | 295 kts | 335° |
| 2026-05-05 17:38 | 49.08847 | 2.86198 | 11036 ft | 312 kts | 323° |
| 2026-05-05 17:39 | 49.10639 | 2.84116 | 11217 ft | 335 kts | 322° |
| 2026-05-05 17:39 | 49.12513 | 2.81874 | 11615 ft | 347 kts | 322° |
| 2026-05-05 17:39 | 49.14426 | 2.79571 | 12253 ft | 353 kts | 322° |
| 2026-05-05 17:39 | 49.16369 | 2.77243 | 12928 ft | 357 kts | 322° |
| 2026-05-05 17:40 | 49.18336 | 2.74894 | 13600 ft | 361 kts | 322° |
| 2026-05-05 17:40 | 49.20328 | 2.72518 | 14196 ft | 365 kts | 322° |
| 2026-05-05 17:40 | 49.22344 | 2.70121 | 14793 ft | 369 kts | 322° |
| 2026-05-05 17:40 | 49.24383 | 2.67703 | 15379 ft | 373 kts | 322° |
| 2026-05-05 17:41 | 49.26443 | 2.65264 | 15950 ft | 376 kts | 322° |
| 2026-05-05 17:41 | 49.28523 | 2.62800 | 16544 ft | 380 kts | 322° |
| 2026-05-05 17:41 | 49.30620 | 2.60307 | 17129 ft | 383 kts | 322° |
| 2026-05-05 17:41 | 49.32731 | 2.57792 | 17741 ft | 387 kts | 321° |
| 2026-05-05 17:42 | 49.34870 | 2.55245 | 18330 ft | 390 kts | 321° |
| 2026-05-05 17:42 | 49.37024 | 2.52681 | 18889 ft | 394 kts | 321° |
| 2026-05-05 17:42 | 49.39193 | 2.50095 | 19450 ft | 397 kts | 321° |
| 2026-05-05 17:42 | 49.41347 | 2.47518 | 20010 ft | 400 kts | 321° |
| 2026-05-05 17:43 | 49.43547 | 2.44876 | 20563 ft | 403 kts | 321° |
| 2026-05-05 17:43 | 49.45760 | 2.42210 | 21095 ft | 406 kts | 321° |
| 2026-05-05 17:43 | 49.47990 | 2.39524 | 21620 ft | 409 kts | 322° |
| 2026-05-05 17:43 | 49.50241 | 2.36816 | 22136 ft | 412 kts | 322° |
| 2026-05-05 17:44 | 49.52504 | 2.34095 | 22648 ft | 415 kts | 322° |
| 2026-05-05 17:44 | 49.54783 | 2.31350 | 23145 ft | 418 kts | 321° |
| 2026-05-05 17:44 | 49.57077 | 2.28580 | 23608 ft | 420 kts | 321° |
| 2026-05-05 17:44 | 49.59380 | 2.25796 | 24015 ft | 423 kts | 322° |
| 2026-05-05 17:45 | 49.61703 | 2.22989 | 24415 ft | 425 kts | 321° |
| 2026-05-05 17:45 | 49.64040 | 2.20163 | 24757 ft | 428 kts | 321° |
| 2026-05-05 17:45 | 49.66381 | 2.17329 | 24850 ft | 428 kts | 321° |
| 2026-05-05 17:45 | 49.68720 | 2.14498 | 24869 ft | 428 kts | 321° |
| 2026-05-05 17:46 | 49.71061 | 2.11657 | 24858 ft | 427 kts | 321° |
| 2026-05-05 17:46 | 49.73397 | 2.08815 | 24868 ft | 427 kts | 321° |
| 2026-05-05 17:46 | 49.75730 | 2.05976 | 24873 ft | 427 kts | 321° |
| 2026-05-05 17:46 | 49.78064 | 2.03132 | 24866 ft | 427 kts | 321° |
| 2026-05-05 17:47 | 49.80397 | 2.00283 | 24862 ft | 427 kts | 321° |
| 2026-05-05 17:47 | 49.82727 | 1.97433 | 24868 ft | 427 kts | 321° |
| 2026-05-05 17:47 | 49.85059 | 1.94577 | 24873 ft | 427 kts | 321° |
| 2026-05-05 17:47 | 49.87390 | 1.91715 | 24870 ft | 428 kts | 321° |
| 2026-05-05 17:48 | 49.89722 | 1.88847 | 24866 ft | 428 kts | 321° |
| 2026-05-05 17:48 | 49.92052 | 1.85982 | 24865 ft | 428 kts | 321° |
| 2026-05-05 17:48 | 49.94351 | 1.83151 | 24867 ft | 428 kts | 321° |
| 2026-05-05 17:48 | 49.96689 | 1.80271 | 24863 ft | 428 kts | 321° |
| 2026-05-05 17:49 | 49.99023 | 1.77390 | 24864 ft | 428 kts | 321° |
| 2026-05-05 17:49 | 50.01357 | 1.74507 | 24864 ft | 429 kts | 321° |
| 2026-05-05 17:49 | 50.03689 | 1.71624 | 24866 ft | 429 kts | 321° |
| 2026-05-05 17:49 | 50.06038 | 1.68760 | 24860 ft | 429 kts | 324° |
| 2026-05-05 17:50 | 50.08583 | 1.66341 | 24862 ft | 430 kts | 333° |
| 2026-05-05 17:50 | 50.11288 | 1.64369 | 24864 ft | 430 kts | 335° |
| 2026-05-05 17:50 | 50.14003 | 1.62405 | 24869 ft | 430 kts | 335° |
| 2026-05-05 17:50 | 50.16718 | 1.60436 | 24865 ft | 430 kts | 334° |
| 2026-05-05 17:51 | 50.19430 | 1.58469 | 24865 ft | 430 kts | 335° |
| 2026-05-05 17:51 | 50.22147 | 1.56498 | 24871 ft | 430 kts | 335° |
| 2026-05-05 17:51 | 50.24858 | 1.54528 | 24878 ft | 430 kts | 335° |
| 2026-05-05 17:51 | 50.27568 | 1.52551 | 24878 ft | 430 kts | 335° |
| 2026-05-05 17:52 | 50.30278 | 1.50571 | 24885 ft | 430 kts | 335° |
| 2026-05-05 17:52 | 50.32990 | 1.48591 | 24892 ft | 430 kts | 335° |
| 2026-05-05 17:52 | 50.35693 | 1.46613 | 24893 ft | 429 kts | 335° |
| 2026-05-05 17:52 | 50.38404 | 1.44626 | 24894 ft | 429 kts | 335° |
| 2026-05-05 17:53 | 50.41101 | 1.42647 | 24899 ft | 429 kts | 335° |
| 2026-05-05 17:53 | 50.43800 | 1.40667 | 24899 ft | 428 kts | 335° |
| 2026-05-05 17:53 | 50.46460 | 1.38698 | 24903 ft | 428 kts | 333° |
| 2026-05-05 17:53 | 50.48995 | 1.36283 | 24904 ft | 427 kts | 323° |
| 2026-05-05 17:54 | 50.51252 | 1.33251 | 24905 ft | 426 kts | 314° |
| 2026-05-05 17:54 | 50.53267 | 1.29840 | 24905 ft | 426 kts | 312° |
| 2026-05-05 17:54 | 50.55271 | 1.26427 | 24911 ft | 425 kts | 312° |
| 2026-05-05 17:54 | 50.57283 | 1.23014 | 24911 ft | 425 kts | 312° |
| 2026-05-05 17:55 | 50.59320 | 1.19631 | 24916 ft | 425 kts | 314° |
| 2026-05-05 17:55 | 50.61392 | 1.16329 | 24921 ft | 425 kts | 314° |
| 2026-05-05 17:55 | 50.63495 | 1.13055 | 24923 ft | 424 kts | 315° |
| 2026-05-05 17:55 | 50.65599 | 1.09804 | 24935 ft | 424 kts | 315° |
| 2026-05-05 17:56 | 50.67700 | 1.06543 | 24941 ft | 424 kts | 315° |
| 2026-05-05 17:56 | 50.69785 | 1.03282 | 24799 ft | 418 kts | 314° |
| 2026-05-05 17:56 | 50.71829 | 1.00060 | 24267 ft | 415 kts | 314° |
| 2026-05-05 17:56 | 50.73854 | 0.96844 | 23789 ft | 411 kts | 314° |
| 2026-05-05 17:57 | 50.75852 | 0.93654 | 23289 ft | 407 kts | 314° |
| 2026-05-05 17:57 | 50.77829 | 0.90488 | 22816 ft | 402 kts | 314° |
| 2026-05-05 17:57 | 50.79783 | 0.87359 | 22351 ft | 398 kts | 314° |
| 2026-05-05 17:57 | 50.81721 | 0.84256 | 21888 ft | 395 kts | 314° |
| 2026-05-05 17:58 | 50.83643 | 0.81176 | 21420 ft | 392 kts | 315° |
| 2026-05-05 17:58 | 50.85528 | 0.78156 | 20957 ft | 390 kts | 315° |
| 2026-05-05 17:58 | 50.87425 | 0.75117 | 20483 ft | 387 kts | 315° |
| 2026-05-05 17:58 | 50.89314 | 0.72089 | 20000 ft | 385 kts | 315° |
| 2026-05-05 17:59 | 50.91184 | 0.69082 | 19512 ft | 383 kts | 315° |
| 2026-05-05 17:59 | 50.93050 | 0.66074 | 19003 ft | 382 kts | 315° |
| 2026-05-05 17:59 | 50.94909 | 0.63079 | 18498 ft | 380 kts | 315° |
| 2026-05-05 17:59 | 50.96758 | 0.60099 | 18041 ft | 376 kts | 316° |
| 2026-05-05 18:00 | 50.98563 | 0.57185 | 17787 ft | 368 kts | 315° |
| 2026-05-05 18:00 | 51.00386 | 0.54243 | 16850 ft | 377 kts | 315° |
| 2026-05-05 18:00 | 51.02228 | 0.51267 | 16222 ft | 377 kts | 315° |
| 2026-05-05 18:00 | 51.04056 | 0.48299 | 15666 ft | 375 kts | 315° |
| 2026-05-05 18:01 | 51.05874 | 0.45342 | 15118 ft | 373 kts | 315° |
| 2026-05-05 18:01 | 51.07688 | 0.42406 | 14577 ft | 370 kts | 316° |
| 2026-05-05 18:01 | 51.09520 | 0.39547 | 14044 ft | 368 kts | 317° |
| 2026-05-05 18:01 | 51.11366 | 0.36746 | 13462 ft | 365 kts | 317° |
| 2026-05-05 18:02 | 51.13201 | 0.33984 | 12933 ft | 361 kts | 317° |
| 2026-05-05 18:02 | 51.14838 | 0.31517 | 12795 ft | 348 kts | 317° |
| 2026-05-05 18:02 | 51.16566 | 0.28904 | 12661 ft | 334 kts | 317° |
| 2026-05-05 18:02 | 51.18215 | 0.26397 | 12523 ft | 322 kts | 317° |
| 2026-05-05 18:03 | 51.19802 | 0.23970 | 12384 ft | 311 kts | 317° |
| 2026-05-05 18:03 | 51.21340 | 0.21611 | 12150 ft | 304 kts | 317° |
| 2026-05-05 18:03 | 51.22851 | 0.19285 | 11665 ft | 301 kts | 316° |
| 2026-05-05 18:03 | 51.24350 | 0.16975 | 11341 ft | 298 kts | 317° |
| 2026-05-05 18:04 | 51.25839 | 0.14685 | 10992 ft | 296 kts | 317° |
| 2026-05-05 18:04 | 51.27317 | 0.12409 | 10661 ft | 294 kts | 316° |
| 2026-05-05 18:04 | 51.28767 | 0.10174 | 10347 ft | 292 kts | 317° |
| 2026-05-05 18:04 | 51.30232 | 0.07916 | 10161 ft | 284 kts | 316° |
| 2026-05-05 18:05 | 51.31644 | 0.05714 | 9831 ft | 283 kts | 316° |
| 2026-05-05 18:05 | 51.32853 | 0.03307 | 9493 ft | 282 kts | 297° |
| 2026-05-05 18:05 | 51.33325 | 0.00287 | 9157 ft | 282 kts | 275° |
| 2026-05-05 18:05 | 51.33370 | -0.02858 | 8806 ft | 282 kts | 272° |
| 2026-05-05 18:06 | 51.33430 | -0.05972 | 8570 ft | 278 kts | 275° |
| 2026-05-05 18:06 | 51.33527 | -0.08070 | 8481 ft | 280 kts | 277° |
| 2026-05-05 18:06 | 51.33768 | -0.12171 | 8307 ft | 280 kts | 277° |
| 2026-05-05 18:06 | 51.33959 | -0.15262 | 8181 ft | 279 kts | 277° |
| 2026-05-05 18:07 | 51.34146 | -0.18341 | 8055 ft | 279 kts | 277° |
| 2026-05-05 18:07 | 51.34327 | -0.21406 | 7923 ft | 272 kts | 277° |
| 2026-05-05 18:07 | 51.34495 | -0.24367 | 7793 ft | 263 kts | 277° |
| 2026-05-05 18:07 | 51.34651 | -0.27238 | 7659 ft | 255 kts | 277° |
| 2026-05-05 18:08 | 51.34799 | -0.30014 | 7538 ft | 247 kts | 277° |
| 2026-05-05 18:08 | 51.34941 | -0.32687 | 7410 ft | 243 kts | 277° |
| 2026-05-05 18:08 | 51.35087 | -0.35383 | 7286 ft | 243 kts | 277° |
| 2026-05-05 18:08 | 51.35233 | -0.38063 | 7162 ft | 242 kts | 277° |
| 2026-05-05 18:09 | 51.35375 | -0.40745 | 7038 ft | 242 kts | 277° |
| 2026-05-05 18:09 | 51.35515 | -0.43417 | 6913 ft | 241 kts | 277° |
| 2026-05-05 18:09 | 51.35656 | -0.46088 | 6789 ft | 241 kts | 276° |
| 2026-05-05 18:09 | 51.35796 | -0.48756 | 6662 ft | 240 kts | 277° |
| 2026-05-05 18:10 | 51.35936 | -0.51418 | 6535 ft | 240 kts | 277° |
| 2026-05-05 18:10 | 51.36073 | -0.54044 | 6417 ft | 240 kts | 277° |
| 2026-05-05 18:10 | 51.36210 | -0.56703 | 6294 ft | 239 kts | 276° |
| 2026-05-05 18:10 | 51.36344 | -0.59354 | 6166 ft | 239 kts | 276° |
| 2026-05-05 18:11 | 51.36476 | -0.62002 | 6078 ft | 238 kts | 276° |
| 2026-05-05 18:11 | 51.36608 | -0.64659 | 6108 ft | 240 kts | 276° |
| 2026-05-05 18:11 | 51.36743 | -0.67317 | 6113 ft | 240 kts | 276° |
| 2026-05-05 18:11 | 51.36878 | -0.69981 | 6115 ft | 240 kts | 276° |
| 2026-05-05 18:12 | 51.37013 | -0.72646 | 6040 ft | 240 kts | 276° |
| 2026-05-05 18:12 | 51.37341 | -0.75260 | 5719 ft | 241 kts | 297° |
| 2026-05-05 18:12 | 51.38333 | -0.77364 | 5352 ft | 238 kts | 323° |
| 2026-05-05 18:12 | 51.39785 | -0.78565 | 4991 ft | 236 kts | 347° |
| 2026-05-05 18:13 | 51.41400 | -0.78802 | 4631 ft | 229 kts | 359° |
| 2026-05-05 18:13 | 51.42964 | -0.78874 | 4282 ft | 220 kts | 359° |
| 2026-05-05 18:13 | 51.44470 | -0.78948 | 3961 ft | 212 kts | 359° |
| 2026-05-05 18:13 | 51.45917 | -0.78990 | 3668 ft | 204 kts | 6° |
| 2026-05-05 18:14 | 51.47145 | -0.78116 | 3389 ft | 193 kts | 47° |
| 2026-05-05 18:14 | 51.47620 | -0.76202 | 3177 ft | 185 kts | 86° |
| 2026-05-05 18:14 | 51.47620 | -0.74249 | 3073 ft | 167 kts | 87° |
| 2026-05-05 18:14 | 51.47625 | -0.72505 | 2986 ft | 150 kts | 86° |
| 2026-05-05 18:15 | 51.47635 | -0.70869 | 2838 ft | 144 kts | 86° |
| 2026-05-05 18:15 | 51.47644 | -0.69277 | 2658 ft | 142 kts | 86° |
| 2026-05-05 18:15 | 51.47654 | -0.67703 | 2481 ft | 141 kts | 86° |
| 2026-05-05 18:15 | 51.47663 | -0.66135 | 2297 ft | 140 kts | 86° |
| 2026-05-05 18:16 | 51.47672 | -0.64570 | 2107 ft | 141 kts | 86° |
| 2026-05-05 18:16 | 51.47680 | -0.63009 | 1927 ft | 140 kts | 86° |
| 2026-05-05 18:16 | 51.47688 | -0.61453 | 1740 ft | 140 kts | 86° |
| 2026-05-05 18:16 | 51.47696 | -0.59897 | 1525 ft | 139 kts | 86° |
| 2026-05-05 18:17 | 51.47704 | -0.58339 | 1357 ft | 139 kts | 86° |
| 2026-05-05 18:17 | 51.47712 | -0.56797 | 1165 ft | 139 kts | 87° |
| 2026-05-05 18:17 | 51.47719 | -0.55246 | 965 ft | 139 kts | 86° |
| 2026-05-05 18:17 | 51.47726 | -0.53702 | 769 ft | 139 kts | 86° |
| 2026-05-05 18:18 | 51.47733 | -0.52144 | 579 ft | 140 kts | 87° |
| 2026-05-05 18:18 | 51.47744 | -0.50590 | 371 ft | 139 kts | 86° |
| 2026-05-05 18:18 | 51.47744 | -0.49046 | 225 ft | 138 kts | 86° |
| 2026-05-05 18:18 | 51.47753 | -0.47521 | 96 ft | 136 kts | 86° |
| 2026-05-05 18:19 | 51.47757 | -0.46244 | 90 ft | 94 kts | 91° |
| 2026-05-05 18:19 | 51.47761 | -0.45456 | 86 ft | 44 kts | 90° |
| 2026-05-05 18:19 | 51.47735 | -0.45195 | 88 ft | 18 kts | 146° |
| 2026-05-05 18:19 | 51.47613 | -0.45191 | 87 ft | 16 kts | 213° |
| 2026-05-05 18:20 | 51.47597 | -0.45362 | 87 ft | 17 kts | 270° |
| 2026-05-05 18:20 | 51.47596 | -0.45577 | 88 ft | 21 kts | 269° |
| 2026-05-05 18:20 | 51.47595 | -0.45825 | 88 ft | 24 kts | 270° |
| 2026-05-05 18:20 | 51.47595 | -0.46102 | 90 ft | 26 kts | 270° |
| 2026-05-05 18:21 | 51.47594 | -0.46402 | 87 ft | 28 kts | 269° |
| 2026-05-05 18:21 | 51.47593 | -0.46705 | 87 ft | 28 kts | 270° |
| 2026-05-05 18:21 | 51.47582 | -0.46980 | 91 ft | 24 kts | 268° |
| 2026-05-05 18:21 | 51.47582 | -0.47262 | 90 ft | 26 kts | 271° |
| 2026-05-05 18:22 | 51.47581 | -0.47561 | 90 ft | 27 kts | 269° |
| 2026-05-05 18:22 | 51.47579 | -0.47864 | 90 ft | 28 kts | 271° |
| 2026-05-05 18:22 | 51.47579 | -0.48169 | 89 ft | 28 kts | 270° |
| 2026-05-05 18:22 | 51.47555 | -0.48364 | 91 ft | 10 kts | 201° |
| 2026-05-05 18:23 | 51.47476 | -0.48363 | 87 ft | 12 kts | 179° |
| 2026-05-05 18:23 | 51.47382 | -0.48362 | 87 ft | 15 kts | 179° |
| 2026-05-05 18:23 | 51.47273 | -0.48361 | 87 ft | 17 kts | 180° |
| 2026-05-05 18:23 | 51.47148 | -0.48360 | 87 ft | 19 kts | 179° |
| 2026-05-05 18:24 | 51.47007 | -0.48358 | 87 ft | 20 kts | 179° |
| 2026-05-05 18:24 | 51.46902 | -0.48357 | 88 ft | 8 kts | 179° |
| 2026-05-05 18:24 | 51.46877 | -0.48409 | 87 ft | 9 kts | 269° |
| 2026-05-05 18:24 | 51.46877 | -0.48521 | 87 ft | 12 kts | 270° |
| 2026-05-05 18:25 | 51.46876 | -0.48637 | 87 ft | 5 kts | 269° |
| 2026-05-05 18:25 | 51.46881 | -0.48649 | 87 ft | 3 kts | 308° |
| 2026-05-05 18:25 | 51.46916 | -0.48650 | 87 ft | 4 kts | 359° |
| 2026-05-05 18:25 | 51.46929 | -0.48650 | 91 ft | 1 kts | 360° |
| 2026-05-05 18:26 | 51.46930 | -0.48650 | 91 ft | 0 kts | 360° |